Devers, Texas
Current Conditions -  °F | °C
As of 2:55 PM on Friday 31 Oct 2014 (Local Time) from KBMT Reporting Station
Clear Clear  
Wind Chill: 24°   Ceiling: Unl
Heat Index: 24°   Visibility: 10mi
Dew Point:   Wind: 16mph
Humidity: 33%   Direction: 330°NNW
Pressure: 30.13"   Gusts: 21mph
Location:  30.03°N, 94.59°W
Report Text: KBMT 311955Z AUTO 33014G18KT 10SM CLR 24/07 A3013 RMK AO2 T02400068
Loading
Personal Weather Stations






























Interactive Weather Map
Tropical Storm Tracking
New forecast layout! Learn more

10-Day Weather Forecast

Advertisements
Track Severe Weather on mobile